createdAt,value
2019-03-30T15:52:55.307Z,44.13
2019-03-30T15:55:26.580Z,39.18
2019-03-30T15:57:57.925Z,38.63
2019-03-30T16:00:29.124Z,40.85
2019-03-30T16:03:00.475Z,41.65
2019-03-30T16:05:31.763Z,41.02
2019-03-30T16:08:04.753Z,48.35
2019-03-30T16:10:35.850Z,50.43
2019-03-30T16:13:07.177Z,50.55
2019-03-30T16:15:38.377Z,46.00
2019-03-30T16:18:09.709Z,49.13
2019-03-30T16:20:40.957Z,48.92
2019-03-30T16:23:12.218Z,48.60
2019-03-30T16:25:45.874Z,53.92
2019-03-30T16:28:17.126Z,56.45
2019-03-30T16:30:49.671Z,62.38
2019-03-30T16:33:20.909Z,65.80
2019-03-30T16:35:52.313Z,64.55
2019-03-30T16:38:23.649Z,64.37
2019-03-30T16:40:54.998Z,67.53
2019-03-30T16:43:26.259Z,67.03
2019-03-30T16:45:58.949Z,67.40
2019-03-30T16:48:30.320Z,65.20
2019-03-30T16:51:01.539Z,72.35
2019-03-30T16:53:32.776Z,71.55
2019-03-30T16:56:04.459Z,78.55
2019-03-30T16:58:35.793Z,78.33
2019-03-30T17:01:08.524Z,73.67
2019-03-30T17:03:40.502Z,67.32
2019-03-30T17:06:11.771Z,63.98
2019-03-30T17:08:42.982Z,59.70
2019-03-30T17:11:14.326Z,57.65
2019-03-30T17:13:45.667Z,58.70
2019-03-30T17:16:18.010Z,60.43
2019-03-30T17:18:49.373Z,55.28
2019-03-30T17:21:20.709Z,56.70
2019-03-30T17:23:52.147Z,55.03
2019-03-30T17:26:23.579Z,56.35
2019-03-30T17:28:57.279Z,55.78
2019-03-30T17:31:30.082Z,51.98
2019-03-30T17:34:01.257Z,55.20
2019-03-30T17:36:33.561Z,51.83
2019-03-30T17:39:07.288Z,48.58
2019-03-30T17:41:38.575Z,50.70
2019-03-30T17:44:11.333Z,51.60
2019-03-30T17:46:42.707Z,52.95
2019-03-30T17:49:14.977Z,52.93
2019-03-30T17:51:48.009Z,51.33
2019-03-30T17:54:20.897Z,53.28
2019-03-30T17:56:52.172Z,51.92
2019-03-30T17:59:23.936Z,54.48
2019-03-30T18:01:55.263Z,52.65
2019-03-30T18:04:26.519Z,55.73
2019-03-30T18:06:57.728Z,54.73
2019-03-30T18:09:29.148Z,59.05
2019-03-30T18:12:00.523Z,56.48
2019-03-30T18:14:31.896Z,56.80
2019-03-30T18:17:03.241Z,61.42
2019-03-30T18:19:34.529Z,61.35
2019-03-30T18:22:05.827Z,69.75
2019-03-30T18:24:37.239Z,67.80
2019-03-30T18:27:09.539Z,60.10
2019-03-30T18:29:44.196Z,53.48
2019-03-30T18:32:15.523Z,59.75
2019-03-30T18:34:46.763Z,71.77
2019-03-30T18:37:18.110Z,75.42
2019-03-30T18:39:49.419Z,95.92
2019-03-30T18:42:20.840Z,121.97
2019-03-30T18:44:54.300Z,132.67
2019-03-30T18:47:25.630Z,127.47
2019-03-30T18:49:56.946Z,135.85
2019-03-30T18:52:28.286Z,129.55
2019-03-30T18:54:59.664Z,185.22
2019-03-30T18:57:32.921Z,179.75
2019-03-30T19:00:07.354Z,162.00
2019-03-30T19:02:39.498Z,163.87
2019-03-30T19:05:10.907Z,149.42
2019-03-30T19:07:43.726Z,142.00
2019-03-30T19:10:15.628Z,146.35
2019-03-30T19:12:47.008Z,122.50
2019-03-30T19:15:18.264Z,128.85
2019-03-30T19:17:49.536Z,144.07
2019-03-30T19:20:21.730Z,122.20
2019-03-30T19:22:53.070Z,135.00
2019-03-30T19:25:24.430Z,119.55
2019-03-30T19:27:55.774Z,115.82
2019-03-30T19:30:27.069Z,128.72
2019-03-30T19:32:58.324Z,113.25
2019-03-30T19:35:30.935Z,117.40
2019-03-30T19:38:03.907Z,113.65
2019-03-30T19:40:35.309Z,120.75
2019-03-30T19:43:06.486Z,129.03
2019-03-30T19:45:37.760Z,119.85
2019-03-30T19:48:09.119Z,145.35
2019-03-30T19:50:40.399Z,153.90
2019-03-30T19:53:13.465Z,206.25
2019-03-30T19:55:44.905Z,232.00
2019-03-30T19:58:16.331Z,180.95
2019-03-30T20:00:47.727Z,221.20
2019-03-30T20:03:20.153Z,335.88
2019-03-30T20:05:51.520Z,268.15
2019-03-30T20:08:22.971Z,308.55
2019-03-30T20:10:54.353Z,270.00
2019-03-30T20:13:25.858Z,326.32
